Terminal Aerodrome Forecast
Issued by NWS

Home | Current Version | Previous Version | Text Only | Print | Product List | Glossary On
Versions: 1 2 3 4 5 6 7 8 9 10 11 12 13 14 15 16 17 18 19 20 21 22
000
FTUS43 KAPX 161700
TAFPLN
TAF
KPLN 161727Z 1618/1718 16008KT P6SM SCT040 BKN150
     FM162300 10006KT P6SM -SN OVC050
     FM170400 10008KT P6SM OVC100 WS020/16035KT
     FM171400 12013G22KT P6SM FEW040 BKN120=

USA.gov is the U.S. government's official web portal to all federal, state and local government web resources and services.